This is the latest recevied weather packets stored in our database for station/object DM1AS-13. If no packets are shown the sender has not sent any weather packets the latest 10 day(s).
| Time | Temp. | Humidity | Pressure | Rain* | Wind** | Luminosity | Snow |
|---|---|---|---|---|---|---|---|
| 1777298238 | 17.78° C | 37% | 1024 hPa | 0 mm | - | - | - |
| 1777297037 | 17.78° C | 40% | 1024.2 hPa | 0 mm | - | - | - |
| 1777292237 | 17.78° C | 38% | 1024.6 hPa | 0 mm | - | - | - |
| 1777289837 | 17.78° C | 40% | 1024.7 hPa | 0 mm | - | - | - |
| 1777287437 | 17.22° C | 40% | 1024.9 hPa | 0 mm | - | - | - |
| 1777284437 | 16.67° C | 44% | 1025.3 hPa | 0 mm | - | - | - |
| 1777274837 | 13.33° C | 45% | 1026.2 hPa | 0 mm | - | - | - |
| 1777274236 | 12.78° C | 45% | 1026.2 hPa | 0 mm | - | - | - |
| 1777272437 | 10° C | 52% | 1026.2 hPa | 0 mm | - | - | - |
| 1777268236 | 4.44° C | 77% | 1026.2 hPa | 0 mm | - | - | - |
| 1777265836 | 3.33° C | 79% | 1026.3 hPa | 0 mm | - | - | - |
| 1777264637 | 2.78° C | 79% | 1026 hPa | 0 mm | - | - | - |
| 1777261036 | 2.78° C | 75% | 1025.9 hPa | 0 mm | - | - | - |
| 1777257436 | 3.89° C | 73% | 1026 hPa | 0 mm | - | - | - |
| 1777255636 | 3.89° C | 72% | 1026.3 hPa | 0 mm | - | - | - |
| 1777251436 | 5° C | 69% | 1026.4 hPa | 0 mm | - | - | - |
| 1777250236 | 5° C | 67% | 1026.5 hPa | 0 mm | - | - | - |
| 1777246636 | 6.11° C | 63% | 1026.6 hPa | 0 mm | - | - | - |
| 1777234636 | 9.44° C | 52% | 1026.6 hPa | 0 mm | - | - | - |
| 1777233436 | 10° C | 47% | 1026.5 hPa | 0 mm | - | - | - |
| 1777229836 | 12.22° C | 40% | 1026.2 hPa | 0 mm | - | - | - |
| 1777228638 | 12.78° C | 38% | 1026 hPa | 0 mm | - | - | - |
* Rain latest hour (hover to see other rain measurements)
** Current wind speed in m/s (hover to see current wind gust speed)